createdAt,value
2017-07-22T00:00:47.005Z,99.90
2017-07-22T00:03:13.264Z,99.90
2017-07-22T00:05:39.526Z,99.90
2017-07-22T00:08:05.784Z,99.90
2017-07-22T00:10:33.845Z,99.90
2017-07-22T00:13:01.113Z,99.90
2017-07-22T00:15:27.373Z,99.90
2017-07-22T00:17:53.633Z,99.90
2017-07-22T00:20:19.898Z,99.90
2017-07-22T00:22:46.196Z,99.90
2017-07-22T00:25:12.457Z,99.90
2017-07-22T00:27:38.724Z,99.90
2017-07-22T00:30:04.993Z,99.90
2017-07-22T00:32:31.246Z,99.90
2017-07-22T00:34:57.529Z,99.90
2017-07-22T00:37:23.804Z,99.90
2017-07-22T00:39:50.102Z,99.90
2017-07-22T00:42:16.386Z,99.90
2017-07-22T00:44:42.634Z,99.90
2017-07-22T00:47:08.914Z,99.90
2017-07-22T00:49:35.190Z,99.90
2017-07-22T00:52:01.477Z,99.90
2017-07-22T00:54:27.732Z,99.90
2017-07-22T00:56:53.993Z,99.90
2017-07-22T00:59:20.276Z,99.90
2017-07-22T01:01:46.541Z,99.90
2017-07-22T01:04:12.809Z,99.90
2017-07-22T01:06:39.796Z,99.90
2017-07-22T01:09:06.061Z,99.90
2017-07-22T01:11:32.321Z,99.90
2017-07-22T01:13:58.584Z,99.90
2017-07-22T01:16:24.842Z,99.90
2017-07-22T01:18:51.101Z,99.90
2017-07-22T01:21:17.369Z,99.90
2017-07-22T01:23:43.653Z,99.90
2017-07-22T01:26:09.898Z,99.90
2017-07-22T01:28:36.165Z,99.90
2017-07-22T01:31:02.425Z,99.90
2017-07-22T01:33:29.428Z,99.90
2017-07-22T01:35:55.713Z,99.90
2017-07-22T01:38:22.842Z,99.90
2017-07-22T01:40:49.178Z,99.90
2017-07-22T01:43:15.473Z,99.90
2017-07-22T01:45:41.781Z,99.90
2017-07-22T01:48:08.101Z,99.90
2017-07-22T01:50:34.441Z,99.90
2017-07-22T01:53:00.797Z,99.90
2017-07-22T01:55:27.135Z,99.90
2017-07-22T01:57:53.477Z,99.90
2017-07-22T02:00:19.804Z,99.90
2017-07-22T02:02:46.100Z,99.90
2017-07-22T02:05:12.401Z,99.90
2017-07-22T02:07:38.686Z,99.90
2017-07-22T02:10:04.997Z,99.90
2017-07-22T02:12:31.287Z,99.90
2017-07-22T02:14:57.589Z,99.90
2017-07-22T02:17:23.881Z,99.90
2017-07-22T02:19:50.174Z,99.90
2017-07-22T02:22:16.477Z,99.90
2017-07-22T02:24:42.772Z,99.90
2017-07-22T02:27:09.093Z,99.90
2017-07-22T02:29:35.390Z,99.90
2017-07-22T02:32:01.705Z,99.90
2017-07-22T02:34:28.017Z,99.90
2017-07-22T02:36:54.309Z,99.90
2017-07-22T02:39:20.676Z,99.90
2017-07-22T02:41:47.033Z,99.90
2017-07-22T02:44:13.328Z,99.90
2017-07-22T02:46:40.693Z,99.90
2017-07-22T02:49:08.029Z,99.90
2017-07-22T02:51:34.365Z,99.90
2017-07-22T02:54:00.701Z,99.90
2017-07-22T02:56:27.021Z,99.90
2017-07-22T02:58:53.365Z,99.90
2017-07-22T03:01:19.666Z,99.90
2017-07-22T03:03:45.969Z,99.90
2017-07-22T03:06:12.292Z,99.90
2017-07-22T03:08:38.625Z,99.90
2017-07-22T03:11:04.924Z,99.90
2017-07-22T03:13:31.288Z,99.90
2017-07-22T03:15:57.576Z,99.90
2017-07-22T03:18:23.914Z,99.90
2017-07-22T03:20:50.214Z,99.90
2017-07-22T03:23:16.504Z,99.90
2017-07-22T03:25:42.818Z,99.90
2017-07-22T03:28:09.141Z,99.90
2017-07-22T03:30:35.505Z,99.90
2017-07-22T03:33:01.820Z,99.90
2017-07-22T03:35:28.117Z,99.90
2017-07-22T03:37:54.412Z,99.90
2017-07-22T03:40:20.716Z,99.90
2017-07-22T03:42:48.030Z,99.90
2017-07-22T03:45:14.324Z,99.90
2017-07-22T03:47:41.638Z,99.90
2017-07-22T03:50:07.928Z,99.90
2017-07-22T03:52:34.241Z,99.90
2017-07-22T03:55:00.545Z,99.90
2017-07-22T03:57:26.849Z,99.90
2017-07-22T03:59:53.148Z,99.90
2017-07-22T04:02:19.457Z,99.90
2017-07-22T04:04:46.759Z,99.90
2017-07-22T04:07:13.789Z,99.90
2017-07-22T04:09:40.077Z,99.90
2017-07-22T04:12:06.361Z,99.90
2017-07-22T04:14:33.424Z,99.90
2017-07-22T04:16:59.717Z,99.90
2017-07-22T04:19:26.018Z,99.90
2017-07-22T04:21:52.305Z,99.90
2017-07-22T04:24:19.352Z,99.90
2017-07-22T04:26:47.534Z,99.90
2017-07-22T04:29:13.825Z,99.90
2017-07-22T04:31:40.134Z,99.90
2017-07-22T04:34:06.445Z,99.90
2017-07-22T04:36:32.751Z,99.90
2017-07-22T04:38:59.057Z,99.90
2017-07-22T04:41:25.358Z,99.90
2017-07-22T04:43:51.652Z,99.90
2017-07-22T04:46:17.977Z,99.90
2017-07-22T04:48:45.278Z,99.90
2017-07-22T04:51:11.576Z,99.90
2017-07-22T04:53:37.860Z,99.90
2017-07-22T04:56:04.887Z,99.90
2017-07-22T04:58:31.186Z,99.90
2017-07-22T05:00:57.473Z,99.90
2017-07-22T05:03:25.537Z,99.90
2017-07-22T05:05:52.724Z,99.90
2017-07-22T05:08:19.021Z,99.90
2017-07-22T05:10:46.062Z,99.90
2017-07-22T05:13:13.081Z,99.90
2017-07-22T05:15:39.377Z,99.90
2017-07-22T05:18:05.665Z,99.90
2017-07-22T05:20:33.718Z,99.90
2017-07-22T05:23:00.012Z,99.90
2017-07-22T05:25:26.303Z,99.90
2017-07-22T05:27:53.338Z,99.90
2017-07-22T05:30:19.625Z,99.90
2017-07-22T05:32:45.901Z,99.90
2017-07-22T05:35:12.181Z,99.90
2017-07-22T05:37:38.480Z,99.90
2017-07-22T05:40:04.774Z,99.90
2017-07-22T05:42:31.064Z,99.90
2017-07-22T05:44:57.360Z,99.90
2017-07-22T05:47:23.728Z,99.90
2017-07-22T05:49:50.024Z,99.90
2017-07-22T05:52:16.326Z,99.90
2017-07-22T05:54:43.664Z,99.90
2017-07-22T05:57:09.951Z,99.90
2017-07-22T05:59:36.268Z,99.90
2017-07-22T06:02:02.585Z,99.90
2017-07-22T06:04:29.637Z,99.90
2017-07-22T06:06:56.678Z,99.90
2017-07-22T06:09:22.979Z,99.90
2017-07-22T06:11:49.265Z,99.90
2017-07-22T06:14:15.551Z,99.90
2017-07-22T06:16:41.881Z,99.90
2017-07-22T06:19:09.188Z,99.90
2017-07-22T06:21:35.482Z,99.90
2017-07-22T06:24:01.811Z,99.90
2017-07-22T06:26:28.855Z,99.90
2017-07-22T06:28:55.162Z,99.90
2017-07-22T06:31:21.464Z,99.90
2017-07-22T06:33:47.760Z,99.90
2017-07-22T06:36:14.056Z,99.90
2017-07-22T06:38:40.354Z,99.90
2017-07-22T06:41:06.646Z,99.90
2017-07-22T06:43:32.941Z,99.90
2017-07-22T06:45:59.249Z,99.90
2017-07-22T06:48:25.565Z,99.90
2017-07-22T06:50:51.873Z,99.90
2017-07-22T06:53:18.169Z,99.90
2017-07-22T06:55:44.452Z,99.90
2017-07-22T06:58:10.737Z,99.90
2017-07-22T07:00:37.826Z,99.90
2017-07-22T07:03:04.128Z,99.90
2017-07-22T07:05:30.425Z,99.90
2017-07-22T07:07:56.718Z,99.90
2017-07-22T07:10:23.021Z,99.90
2017-07-22T07:12:49.313Z,99.90
2017-07-22T07:15:15.605Z,99.90
2017-07-22T07:17:41.908Z,99.90
2017-07-22T07:20:08.235Z,99.90
2017-07-22T07:22:34.528Z,99.90
2017-07-22T07:25:00.822Z,99.90
2017-07-22T07:27:28.127Z,99.90
2017-07-22T07:29:55.173Z,99.90
2017-07-22T07:32:22.274Z,99.90
2017-07-22T07:34:48.564Z,99.90
2017-07-22T07:37:15.645Z,99.90
2017-07-22T07:39:41.921Z,99.90
2017-07-22T07:42:08.207Z,99.90
2017-07-22T07:44:34.469Z,99.90
2017-07-22T07:47:00.760Z,99.90
2017-07-22T07:49:27.065Z,99.90
2017-07-22T07:51:53.373Z,99.90
2017-07-22T07:54:21.409Z,99.90
2017-07-22T07:56:47.701Z,99.90
2017-07-22T07:59:14.001Z,99.90
2017-07-22T08:01:41.813Z,99.90
2017-07-22T08:04:08.102Z,99.90
2017-07-22T08:06:35.387Z,99.90
2017-07-22T08:09:01.689Z,99.90
2017-07-22T08:11:28.705Z,99.90
2017-07-22T08:13:54.977Z,99.90
2017-07-22T08:16:21.329Z,99.90
2017-07-22T08:18:47.621Z,99.90
2017-07-22T08:21:14.661Z,99.90
2017-07-22T08:23:41.705Z,99.90
2017-07-22T08:26:08.737Z,99.90
2017-07-22T08:28:35.792Z,99.90
2017-07-22T08:31:02.090Z,99.90
2017-07-22T08:33:28.413Z,99.90
2017-07-22T08:35:54.692Z,99.90
2017-07-22T08:38:20.992Z,99.90
2017-07-22T08:40:48.316Z,99.90
2017-07-22T08:43:14.605Z,99.90
2017-07-22T08:45:41.644Z,99.90
2017-07-22T08:48:08.681Z,99.90
2017-07-22T08:50:35.001Z,99.90
2017-07-22T08:53:01.313Z,99.90
2017-07-22T08:55:27.613Z,99.90
2017-07-22T08:57:53.893Z,99.90
2017-07-22T09:00:20.169Z,99.90
2017-07-22T09:02:46.473Z,99.90
2017-07-22T09:05:13.501Z,96.40
2017-07-22T09:07:39.797Z,96.30
2017-07-22T09:10:06.102Z,93.60
2017-07-22T09:12:32.400Z,94.20
2017-07-22T09:14:59.433Z,91.10
2017-07-22T09:17:25.725Z,91.00
2017-07-22T09:19:52.025Z,90.80
2017-07-22T09:22:18.316Z,90.80
2017-07-22T09:24:44.613Z,89.80
2017-07-22T09:27:10.924Z,90.60
2017-07-22T09:29:37.233Z,90.40
2017-07-22T09:32:03.521Z,90.50
2017-07-22T09:34:29.819Z,92.80
2017-07-22T09:36:56.114Z,90.00
2017-07-22T09:39:23.153Z,90.50
2017-07-22T09:41:49.445Z,90.70
2017-07-22T09:44:15.733Z,90.80
2017-07-22T09:46:42.769Z,91.20
2017-07-22T09:49:09.805Z,90.50
2017-07-22T09:51:36.098Z,90.40
2017-07-22T09:54:02.393Z,90.10
2017-07-22T09:56:28.693Z,87.50
2017-07-22T09:58:55.735Z,82.70
2017-07-22T10:01:22.032Z,82.70
2017-07-22T10:03:48.332Z,82.40
2017-07-22T10:06:14.632Z,82.60
2017-07-22T10:08:41.674Z,83.00
2017-07-22T10:11:07.970Z,82.90
2017-07-22T10:13:34.264Z,82.00
2017-07-22T10:16:00.553Z,84.20
2017-07-22T10:18:26.855Z,83.40
2017-07-22T10:20:53.161Z,87.80
2017-07-22T10:23:19.466Z,83.80
2017-07-22T10:25:45.749Z,84.20
2017-07-22T10:28:12.059Z,83.10
2017-07-22T10:30:38.359Z,81.20
2017-07-22T10:33:04.670Z,79.90
2017-07-22T10:35:31.701Z,78.80
2017-07-22T10:37:57.992Z,79.40
2017-07-22T10:40:24.288Z,81.10
2017-07-22T10:42:50.574Z,81.70
2017-07-22T10:45:16.873Z,82.00
2017-07-22T10:47:43.522Z,83.10
2017-07-22T10:50:09.845Z,81.50
2017-07-22T10:52:36.141Z,80.40
2017-07-22T10:55:03.205Z,81.10
2017-07-22T10:57:29.489Z,81.10
2017-07-22T10:59:55.793Z,82.10
2017-07-22T11:02:22.297Z,78.90
2017-07-22T11:04:48.593Z,81.00
2017-07-22T11:07:14.883Z,81.90
2017-07-22T11:09:41.202Z,77.90
2017-07-22T11:12:07.535Z,73.80
2017-07-22T11:14:34.924Z,72.60
2017-07-22T11:17:01.237Z,73.00
2017-07-22T11:19:27.552Z,70.20
2017-07-22T11:21:53.840Z,67.20
2017-07-22T11:24:20.889Z,68.70
2017-07-22T11:26:47.177Z,68.70
2017-07-22T11:29:13.470Z,68.10
2017-07-22T11:31:39.753Z,70.40
2017-07-22T11:34:06.049Z,65.90
2017-07-22T11:36:33.382Z,63.20
2017-07-22T11:38:59.676Z,65.30
2017-07-22T11:41:25.966Z,65.90
2017-07-22T11:43:53.269Z,65.10
2017-07-22T11:46:21.324Z,65.00
2017-07-22T11:48:47.608Z,64.60
2017-07-22T11:51:13.910Z,63.90
2017-07-22T11:53:40.202Z,63.00
2017-07-22T11:56:06.545Z,66.70
2017-07-22T11:58:33.220Z,69.40
2017-07-22T12:00:59.583Z,63.60
2017-07-22T12:03:25.930Z,64.10
2017-07-22T12:05:52.273Z,62.70
2017-07-22T12:08:18.605Z,59.90
2017-07-22T12:10:45.657Z,62.70
2017-07-22T12:13:12.713Z,61.30
2017-07-22T12:15:39.745Z,64.00
2017-07-22T12:18:06.029Z,64.20
2017-07-22T12:20:32.318Z,64.30
2017-07-22T12:22:59.365Z,57.30
2017-07-22T12:25:26.410Z,58.30
2017-07-22T12:27:53.450Z,58.60
2017-07-22T12:30:19.784Z,58.60
2017-07-22T12:32:46.817Z,58.10
2017-07-22T12:35:13.120Z,58.10
2017-07-22T12:37:39.419Z,59.20
2017-07-22T12:40:05.704Z,58.30
2017-07-22T12:42:31.992Z,57.30
2017-07-22T12:44:58.272Z,59.00
2017-07-22T12:47:25.306Z,51.80
2017-07-22T12:49:51.585Z,52.30
2017-07-22T12:52:18.424Z,52.10
2017-07-22T12:54:44.714Z,50.40
2017-07-22T12:57:11.761Z,51.90
2017-07-22T12:59:38.044Z,51.40
2017-07-22T13:02:04.329Z,51.00
2017-07-22T13:04:31.376Z,47.40
2017-07-22T13:06:58.406Z,46.10
2017-07-22T13:09:24.712Z,46.10
2017-07-22T13:11:51.031Z,45.20
2017-07-22T13:14:17.389Z,45.90
2017-07-22T13:16:43.675Z,46.00
2017-07-22T13:19:09.981Z,46.80
2017-07-22T13:21:36.275Z,46.50
2017-07-22T13:24:02.580Z,48.40
2017-07-22T13:26:28.877Z,49.40
2017-07-22T13:28:55.183Z,48.60
2017-07-22T13:31:22.227Z,50.40
2017-07-22T13:33:48.509Z,50.30
2017-07-22T13:36:14.813Z,51.00
2017-07-22T13:38:41.100Z,51.40
2017-07-22T13:41:07.397Z,47.70
2017-07-22T13:43:33.689Z,45.90
2017-07-22T13:46:00.708Z,43.40
2017-07-22T13:48:27.693Z,43.40
2017-07-22T13:50:54.012Z,44.40
2017-07-22T13:53:20.297Z,43.50
2017-07-22T13:55:46.584Z,40.30
2017-07-22T13:58:13.869Z,37.60
2017-07-22T14:00:41.164Z,40.00
2017-07-22T14:03:08.201Z,39.10
2017-07-22T14:05:34.493Z,39.00
2017-07-22T14:08:00.801Z,40.60
2017-07-22T14:10:27.095Z,39.40
2017-07-22T14:12:54.137Z,37.80
2017-07-22T14:15:20.423Z,37.80
2017-07-22T14:17:46.713Z,38.70
2017-07-22T14:20:13.014Z,39.00
2017-07-22T14:22:39.310Z,37.80
2017-07-22T14:25:05.621Z,36.50
2017-07-22T14:27:31.926Z,37.50
2017-07-22T14:30:01.767Z,37.10
2017-07-22T14:32:30.784Z,37.00
2017-07-22T14:35:00.397Z,37.80
2017-07-22T14:37:28.055Z,37.30
2017-07-22T14:39:54.613Z,35.50
2017-07-22T14:42:21.662Z,36.40
2017-07-22T14:44:47.957Z,36.40
2017-07-22T14:47:14.248Z,36.90
2017-07-22T14:49:42.298Z,37.30
2017-07-22T14:52:08.613Z,37.30
2017-07-22T14:54:34.952Z,38.60
2017-07-22T14:57:01.249Z,39.10
2017-07-22T14:59:27.542Z,39.50
2017-07-22T15:01:53.842Z,38.60
2017-07-22T15:04:20.110Z,37.60
2017-07-22T15:06:46.365Z,37.90
2017-07-22T15:09:12.622Z,36.20
2017-07-22T15:11:38.876Z,36.20
2017-07-22T15:14:05.901Z,36.30
2017-07-22T15:16:32.153Z,36.30
2017-07-22T15:18:58.417Z,35.20
2017-07-22T15:21:24.673Z,35.00
2017-07-22T15:23:50.929Z,34.90
2017-07-22T15:26:17.945Z,34.40
2017-07-22T15:28:44.202Z,34.40
2017-07-22T15:31:10.456Z,35.60
2017-07-22T15:33:36.716Z,35.80
2017-07-22T15:36:02.972Z,35.90
2017-07-22T15:38:29.261Z,36.20
2017-07-22T15:40:55.533Z,36.80
2017-07-22T15:43:22.561Z,37.80
2017-07-22T15:45:48.833Z,37.70
2017-07-22T15:48:15.087Z,37.40
2017-07-22T15:50:41.368Z,38.20
2017-07-22T15:53:07.662Z,36.90
2017-07-22T15:55:33.914Z,36.90
2017-07-22T15:58:00.178Z,38.30
2017-07-22T16:00:26.438Z,38.00
2017-07-22T16:02:53.601Z,38.40
2017-07-22T16:05:19.860Z,37.50
2017-07-22T16:07:46.121Z,35.70
2017-07-22T16:10:12.376Z,34.90
2017-07-22T16:12:38.626Z,34.60
2017-07-22T16:15:04.897Z,34.20
2017-07-22T16:17:31.158Z,36.50
2017-07-22T16:19:57.425Z,35.20
2017-07-22T16:22:23.684Z,35.20
2017-07-22T16:24:49.955Z,36.30
2017-07-22T16:27:16.240Z,36.10
2017-07-22T16:29:42.509Z,36.00
2017-07-22T16:32:08.756Z,36.40
2017-07-22T16:34:35.027Z,36.50
2017-07-22T16:37:01.864Z,34.20
2017-07-22T16:39:28.981Z,38.30
2017-07-22T16:41:55.229Z,37.60
2017-07-22T16:44:21.507Z,38.40
2017-07-22T16:46:47.764Z,38.60
2017-07-22T16:49:15.091Z,37.50
2017-07-22T16:51:41.393Z,39.20
2017-07-22T16:54:07.652Z,37.70
2017-07-22T16:56:34.969Z,37.90
2017-07-22T16:59:01.229Z,35.30
2017-07-22T17:01:28.513Z,34.90
2017-07-22T17:03:54.809Z,34.50
2017-07-22T17:06:21.092Z,35.00
2017-07-22T17:08:48.093Z,37.30
2017-07-22T17:11:14.381Z,37.20
2017-07-22T17:13:42.394Z,38.70
2017-07-22T17:16:08.682Z,38.70
2017-07-22T17:18:35.060Z,39.20
2017-07-22T17:21:01.324Z,38.90
2017-07-22T17:23:28.321Z,37.30
2017-07-22T17:25:54.575Z,37.30
2017-07-22T17:28:20.844Z,37.70
2017-07-22T17:30:47.096Z,39.90
2017-07-22T17:33:13.372Z,40.70
2017-07-22T17:35:40.705Z,41.50
2017-07-22T17:38:06.966Z,43.70
2017-07-22T17:40:33.993Z,42.60
2017-07-22T17:43:00.252Z,42.50
2017-07-22T17:45:27.264Z,44.30
2017-07-22T17:47:54.269Z,47.10
2017-07-22T17:50:20.530Z,47.10
2017-07-22T17:52:46.800Z,50.60
2017-07-22T17:55:13.802Z,47.90
2017-07-22T17:57:40.045Z,47.80
2017-07-22T18:00:06.313Z,52.90
2017-07-22T18:02:32.565Z,50.90
2017-07-22T18:04:58.837Z,50.50
2017-07-22T18:07:25.085Z,50.70
2017-07-22T18:09:52.105Z,55.10
2017-07-22T18:12:18.350Z,55.10
2017-07-22T18:14:45.348Z,57.10
2017-07-22T18:17:11.641Z,57.10
2017-07-22T18:19:37.901Z,53.60
2017-07-22T18:22:04.141Z,56.40
2017-07-22T18:24:30.405Z,59.40
2017-07-22T18:26:56.672Z,56.40
2017-07-22T18:29:22.945Z,61.40
2017-07-22T18:31:49.210Z,62.70
2017-07-22T18:34:16.206Z,63.60
2017-07-22T18:36:42.496Z,63.60
2017-07-22T18:39:08.778Z,64.90
2017-07-22T18:41:35.069Z,65.00
2017-07-22T18:44:01.342Z,65.00
2017-07-22T18:46:27.614Z,67.50
2017-07-22T18:48:53.892Z,69.20
2017-07-22T18:51:20.160Z,67.90
2017-07-22T18:53:46.450Z,66.90
2017-07-22T18:56:12.709Z,68.80
2017-07-22T18:58:38.970Z,70.00
2017-07-22T19:01:05.413Z,71.80
2017-07-22T19:03:31.705Z,72.80
2017-07-22T19:05:58.724Z,75.20
2017-07-22T19:08:24.972Z,75.20
2017-07-22T19:10:51.238Z,73.70
2017-07-22T19:13:17.488Z,76.60
2017-07-22T19:15:43.753Z,77.00
2017-07-22T19:18:10.769Z,78.60
2017-07-22T19:20:37.029Z,78.70
2017-07-22T19:23:04.031Z,79.00
2017-07-22T19:25:30.300Z,79.00
2017-07-22T19:27:57.297Z,78.00
2017-07-22T19:30:23.573Z,78.00
2017-07-22T19:32:50.577Z,81.90
2017-07-22T19:35:16.857Z,81.50
2017-07-22T19:37:43.849Z,84.20
2017-07-22T19:40:10.107Z,84.20
2017-07-22T19:42:36.380Z,84.70
2017-07-22T19:45:02.666Z,85.20
2017-07-22T19:47:28.917Z,86.80
2017-07-22T19:49:55.910Z,85.70
2017-07-22T19:52:22.160Z,85.70
2017-07-22T19:54:48.426Z,84.70
2017-07-22T19:57:14.696Z,83.60
2017-07-22T19:59:41.185Z,84.00
2017-07-22T20:02:08.179Z,85.80
2017-07-22T20:04:34.450Z,85.80
2017-07-22T20:07:01.474Z,90.10
2017-07-22T20:09:27.774Z,90.10
2017-07-22T20:11:54.024Z,90.90
2017-07-22T20:14:20.292Z,91.00
2017-07-22T20:16:47.592Z,90.60
2017-07-22T20:19:13.861Z,90.80
2017-07-22T20:21:40.864Z,89.50
2017-07-22T20:24:07.113Z,89.30
2017-07-22T20:26:33.374Z,90.60
2017-07-22T20:29:00.375Z,90.40
2017-07-22T20:31:26.653Z,90.40
2017-07-22T20:33:53.645Z,97.30
2017-07-22T20:36:19.905Z,97.30
2017-07-22T20:38:46.167Z,97.30
2017-07-22T20:41:12.453Z,96.30
2017-07-22T20:43:38.739Z,95.30
2017-07-22T20:46:04.989Z,94.80
2017-07-22T20:48:31.241Z,94.50
2017-07-22T20:50:57.537Z,93.90
2017-07-22T20:53:23.883Z,94.00
2017-07-22T20:55:50.156Z,93.80
2017-07-22T20:58:17.181Z,94.70
2017-07-22T21:00:43.464Z,94.70
2017-07-22T21:03:09.734Z,95.00
2017-07-22T21:05:36.038Z,94.90
2017-07-22T21:08:02.301Z,94.60
2017-07-22T21:10:28.549Z,96.30
2017-07-22T21:12:55.572Z,97.50
2017-07-22T21:15:22.861Z,97.50
2017-07-22T21:17:49.116Z,97.80
2017-07-22T21:20:15.402Z,98.00
2017-07-22T21:22:42.433Z,98.50
2017-07-22T21:25:08.697Z,98.50
2017-07-22T21:27:35.045Z,98.20
2017-07-22T21:30:01.294Z,98.60
2017-07-22T21:32:27.574Z,99.90
2017-07-22T21:34:53.833Z,99.90
2017-07-22T21:37:20.089Z,99.90
2017-07-22T21:39:46.362Z,99.90
2017-07-22T21:42:12.621Z,99.90
2017-07-22T21:44:38.879Z,99.90
2017-07-22T21:47:05.144Z,99.90
2017-07-22T21:49:31.404Z,99.90
2017-07-22T21:51:57.669Z,99.90
2017-07-22T21:54:23.933Z,99.90
2017-07-22T21:56:50.196Z,99.90
2017-07-22T21:59:16.452Z,99.90
2017-07-22T22:01:42.702Z,99.90
2017-07-22T22:04:10.775Z,99.90
2017-07-22T22:06:37.775Z,99.90
2017-07-22T22:09:04.077Z,99.90
2017-07-22T22:11:30.336Z,99.90
2017-07-22T22:13:56.592Z,99.90
2017-07-22T22:16:24.617Z,99.90
2017-07-22T22:18:50.876Z,99.90
2017-07-22T22:21:17.133Z,99.90
2017-07-22T22:23:44.125Z,99.90
2017-07-22T22:26:10.405Z,99.90
2017-07-22T22:28:37.424Z,99.90
2017-07-22T22:31:03.694Z,99.90
2017-07-22T22:33:29.968Z,99.90
2017-07-22T22:35:56.260Z,99.90
2017-07-22T22:38:22.518Z,99.90
2017-07-22T22:40:48.806Z,99.90
2017-07-22T22:43:15.068Z,99.90
2017-07-22T22:45:41.325Z,99.90
2017-07-22T22:48:07.578Z,99.90
2017-07-22T22:50:34.589Z,99.90
2017-07-22T22:53:00.876Z,99.90
2017-07-22T22:55:27.130Z,99.90
2017-07-22T22:57:53.395Z,99.90
2017-07-22T23:00:20.402Z,99.90
2017-07-22T23:02:46.654Z,99.90
2017-07-22T23:05:12.949Z,99.90
2017-07-22T23:07:39.229Z,99.90
2017-07-22T23:10:05.497Z,99.90
2017-07-22T23:12:31.774Z,99.90
2017-07-22T23:14:58.054Z,99.90
2017-07-22T23:17:24.334Z,99.90
2017-07-22T23:19:50.594Z,99.90
2017-07-22T23:22:16.861Z,99.90
2017-07-22T23:24:43.116Z,99.90
2017-07-22T23:29:43.145Z,99.90
2017-07-22T23:32:09.394Z,99.90
2017-07-22T23:34:35.704Z,99.90
2017-07-22T23:37:02.985Z,99.90
2017-07-22T23:39:29.987Z,99.90
2017-07-22T23:41:56.262Z,99.90
2017-07-22T23:44:23.260Z,99.90
2017-07-22T23:46:49.523Z,99.90
2017-07-22T23:49:15.773Z,99.90
2017-07-22T23:51:42.756Z,99.90
2017-07-22T23:54:09.057Z,99.90
2017-07-22T23:56:35.317Z,99.90
2017-07-22T23:59:01.576Z,99.90
